Terminal Aerodrome Forecast
Issued by NWS

Current Version | Previous Version | Text Only | Print | Product List | Glossary On
Versions: 1 2 3 4 5 6 7 8 9 10 11 12
000
FTUS41 KCAR 261725
TAFPQI
TAF
KPQI 261725Z 2618/2718 24015G25KT P6SM BKN035 OVC070
     FM262200 25009G16KT 6SM -RA BKN025 OVC050
     FM270100 24005KT 3SM -RASN BR OVC015
     FM270300 25004KT 2SM -SN BR SCT008 OVC015
     FM270600 29004KT 6SM -SHSN OVC025
     FM271200 33008KT P6SM BKN035
      AMD LTD TO CLD VIS AND WIND=

USA.gov is the U.S. government's official web portal to all federal, state and local government web resources and services.